createdAt,value
2022-09-21T00:02:17.294Z,1017.025
2022-09-21T00:07:19.841Z,1017.099
2022-09-21T00:12:22.577Z,1017.144
2022-09-21T00:17:25.434Z,1017.15
2022-09-21T00:22:28.125Z,1017.18
2022-09-21T00:27:30.832Z,1017.118
2022-09-21T00:37:39.258Z,1017.171
2022-09-21T00:42:41.824Z,1017.137
2022-09-21T00:47:44.443Z,1017.154
2022-09-21T00:52:47.084Z,1017.213
2022-09-21T00:57:49.933Z,1017.224
2022-09-21T01:02:52.592Z,1017.219
2022-09-21T01:07:55.302Z,1017.28
2022-09-21T01:12:58.493Z,1017.267
2022-09-21T01:18:01.096Z,1017.283
2022-09-21T01:23:03.774Z,1017.271
2022-09-21T01:28:06.426Z,1017.302
2022-09-21T01:33:09.079Z,1017.406
2022-09-21T01:43:14.602Z,1017.441
2022-09-21T01:53:20.128Z,1017.412
2022-09-21T01:58:23.080Z,1017.447
2022-09-21T02:08:28.270Z,1017.467
2022-09-21T02:13:31.023Z,1017.384
2022-09-21T02:18:33.778Z,1017.379
2022-09-21T02:23:42.331Z,1017.391
2022-09-21T02:28:45.352Z,1017.396
2022-09-21T02:33:48.011Z,1017.477
2022-09-21T02:43:53.509Z,1017.6
2022-09-21T02:48:55.897Z,1017.561
2022-09-21T02:53:58.456Z,1017.575
2022-09-21T02:59:01.201Z,1017.657
2022-09-21T03:04:03.789Z,1017.712
2022-09-21T03:09:06.339Z,1017.746
2022-09-21T03:19:14.340Z,1017.787
2022-09-21T03:24:16.830Z,1017.806
2022-09-21T03:29:22.908Z,1017.744
2022-09-21T03:34:25.579Z,1017.737
2022-09-21T03:39:28.296Z,1017.743
2022-09-21T03:49:33.732Z,1017.798
2022-09-21T03:54:36.690Z,1017.748
2022-09-21T03:59:39.465Z,1017.752
2022-09-21T04:04:42.123Z,1017.785
2022-09-21T04:09:44.698Z,1017.847
2022-09-21T04:14:50.410Z,1017.868
2022-09-21T04:19:52.994Z,1017.899
2022-09-21T04:24:55.890Z,1017.909
2022-09-21T04:29:58.723Z,1017.902
2022-09-21T04:35:01.487Z,1017.911
2022-09-21T04:40:03.968Z,1017.906
2022-09-21T04:45:06.541Z,1017.873
2022-09-21T04:50:14.733Z,1017.902
2022-09-21T04:55:17.469Z,1017.932
2022-09-21T05:00:22.839Z,1018.018
2022-09-21T05:05:25.458Z,1018.033
2022-09-21T05:10:28.101Z,1018.124
2022-09-21T05:15:31.102Z,1018.168
2022-09-21T05:20:33.850Z,1018.221
2022-09-21T05:25:36.710Z,1018.251
2022-09-21T05:30:44.662Z,1018.267
2022-09-21T05:35:41.980Z,1018.321
2022-09-21T05:40:44.694Z,1018.367
2022-09-21T05:45:47.987Z,1018.392
2022-09-21T05:50:49.934Z,1018.343
2022-09-21T05:55:52.579Z,1018.362
2022-09-21T06:00:55.501Z,1018.412
2022-09-21T06:05:58.147Z,1018.379
2022-09-21T06:11:00.802Z,1018.428
2022-09-21T06:16:03.243Z,1018.407
2022-09-21T06:21:05.966Z,1018.405
2022-09-21T06:26:08.473Z,1018.429
2022-09-21T06:31:11.485Z,1018.456
2022-09-21T06:36:14.115Z,1018.479
2022-09-21T06:41:20.956Z,1018.529
2022-09-21T06:46:19.709Z,1018.633
2022-09-21T06:51:22.366Z,1018.664
2022-09-21T06:56:25.067Z,1018.71
2022-09-21T07:01:27.806Z,1018.697
2022-09-21T07:06:30.705Z,1018.733
2022-09-21T07:11:33.406Z,1018.723
2022-09-21T07:21:39.323Z,1018.869
2022-09-21T07:26:42.188Z,1018.938
2022-09-21T07:36:47.494Z,1018.886
2022-09-21T07:41:50.158Z,1018.874
2022-09-21T07:46:52.968Z,1018.833
2022-09-21T07:51:57.359Z,1018.866
2022-09-21T07:56:58.285Z,1018.941
2022-09-21T08:02:04.087Z,1018.966
2022-09-21T08:07:07.061Z,1019.006
2022-09-21T08:12:18.666Z,1018.948
2022-09-21T08:17:21.616Z,1018.868
2022-09-21T08:27:27.163Z,1018.992
2022-09-21T08:32:49.721Z,1019.006
2022-09-21T08:37:32.123Z,1018.972
2022-09-21T08:42:35.162Z,1019.063
2022-09-21T08:47:37.698Z,1019.042
2022-09-21T08:52:40.292Z,1019.067
2022-09-21T08:57:43.370Z,1019.076
2022-09-21T09:02:45.925Z,1019.114
2022-09-21T09:17:53.710Z,1019.167
2022-09-21T09:22:56.293Z,1019.148
2022-09-21T09:27:58.798Z,1019.144
2022-09-21T09:33:01.613Z,1019.074
2022-09-21T09:38:04.261Z,1019.108
2022-09-21T09:43:07.230Z,1019.192
2022-09-21T09:48:12.827Z,1019.208
2022-09-21T09:53:18.475Z,1019.185
2022-09-21T10:03:24.070Z,1019.058
2022-09-21T10:08:26.825Z,1019.067
2022-09-21T10:18:32.559Z,1019.053
2022-09-21T10:23:35.177Z,1019.018
2022-09-21T10:28:37.336Z,1019.064
2022-09-21T10:33:39.953Z,1019.088
2022-09-21T10:38:42.718Z,1019.053
2022-09-21T10:43:45.311Z,1019
2022-09-21T10:53:52.426Z,1018.932
2022-09-21T10:58:54.396Z,1018.846
2022-09-21T11:03:57.160Z,1018.834
2022-09-21T11:08:59.708Z,1018.823
2022-09-21T11:14:02.202Z,1018.852
2022-09-21T11:19:04.988Z,1018.881
2022-09-21T11:29:10.488Z,1018.721
2022-09-21T11:39:16.190Z,1018.739
2022-09-21T11:44:19.297Z,1018.805
2022-09-21T11:49:20.980Z,1018.764
2022-09-21T11:54:23.583Z,1018.71
2022-09-21T12:04:28.687Z,1018.667
2022-09-21T12:14:34.054Z,1018.64
2022-09-21T12:19:36.554Z,1018.557
2022-09-21T12:24:42.285Z,1018.464
2022-09-21T12:29:45.025Z,1018.541
2022-09-21T12:34:50.369Z,1018.522
2022-09-21T12:39:53.037Z,1018.472
2022-09-21T12:49:58.076Z,1018.57
2022-09-21T12:55:01.049Z,1018.548
2022-09-21T13:10:09.518Z,1018.3
2022-09-21T13:15:12.185Z,1018.313
2022-09-21T13:25:17.623Z,1018.316
2022-09-21T13:30:20.386Z,1018.244
2022-09-21T13:35:23.081Z,1018.343
2022-09-21T13:40:25.559Z,1018.35
2022-09-21T13:45:27.901Z,1018.328
2022-09-21T13:50:30.688Z,1018.323
2022-09-21T13:55:33.211Z,1018.343
2022-09-21T14:00:35.819Z,1018.272
2022-09-21T14:05:38.539Z,1018.233
2022-09-21T14:10:41.366Z,1018.147
2022-09-21T14:15:44.416Z,1018.044
2022-09-21T14:20:47.766Z,1018.032
2022-09-21T14:25:50.480Z,1018
2022-09-21T14:30:53.027Z,1017.957
2022-09-21T14:35:55.729Z,1017.882
2022-09-21T14:40:58.453Z,1017.872
2022-09-21T14:46:01.034Z,1017.818
2022-09-21T14:51:03.788Z,1017.862
2022-09-21T14:56:06.388Z,1017.824
2022-09-21T15:01:08.661Z,1017.851
2022-09-21T15:06:11.285Z,1017.855
2022-09-21T15:11:16.481Z,1017.856
2022-09-21T15:16:19.116Z,1017.789
2022-09-21T15:21:21.896Z,1017.756
2022-09-21T15:26:24.789Z,1017.696
2022-09-21T15:31:27.507Z,1017.691
2022-09-21T15:36:30.105Z,1017.728
2022-09-21T15:41:32.694Z,1017.672
2022-09-21T15:46:35.428Z,1017.735
2022-09-21T15:51:37.919Z,1017.708
2022-09-21T15:56:40.565Z,1017.666
2022-09-21T16:01:43.347Z,1017.684
2022-09-21T16:06:46.165Z,1017.768
2022-09-21T16:11:48.742Z,1017.767
2022-09-21T16:16:51.329Z,1017.79
2022-09-21T16:21:54.163Z,1017.774
2022-09-21T16:26:56.966Z,1017.773
2022-09-21T16:31:59.822Z,1017.76
2022-09-21T16:37:02.287Z,1017.846
2022-09-21T16:42:04.922Z,1017.817
2022-09-21T16:47:07.509Z,1017.845
2022-09-21T16:52:10.027Z,1017.841
2022-09-21T16:57:12.609Z,1017.862
2022-09-21T17:02:15.334Z,1017.828
2022-09-21T17:07:17.853Z,1017.858
2022-09-21T17:12:20.567Z,1017.918
2022-09-21T17:17:23.116Z,1017.922
2022-09-21T17:22:25.836Z,1017.94
2022-09-21T17:37:34.003Z,1017.97
2022-09-21T17:42:36.677Z,1017.962
2022-09-21T17:47:40.319Z,1017.97
2022-09-21T17:52:43.017Z,1018.021
2022-09-21T17:57:45.611Z,1018.058
2022-09-21T18:02:48.561Z,1018.023
2022-09-21T18:07:51.311Z,1018.087
2022-09-21T18:12:53.783Z,1018.105
2022-09-21T18:17:56.639Z,1018.108
2022-09-21T18:22:59.723Z,1018.169
2022-09-21T18:28:02.375Z,1018.184
2022-09-21T18:33:04.931Z,1018.219
2022-09-21T18:38:07.513Z,1018.224
2022-09-21T18:43:09.950Z,1018.258
2022-09-21T18:48:12.466Z,1018.302
2022-09-21T18:53:14.959Z,1018.243
2022-09-21T18:58:17.546Z,1018.232
2022-09-21T19:03:20.211Z,1018.277
2022-09-21T19:08:22.738Z,1018.28
2022-09-21T19:13:25.573Z,1018.269
2022-09-21T19:18:28.246Z,1018.283
2022-09-21T19:23:30.733Z,1018.323
2022-09-21T19:28:33.390Z,1018.307
2022-09-21T19:33:49.843Z,1018.341
2022-09-21T19:38:38.617Z,1018.37
2022-09-21T19:43:43.848Z,1018.387
2022-09-21T19:48:46.569Z,1018.343
2022-09-21T19:53:49.356Z,1018.377
2022-09-21T19:58:52.153Z,1018.408
2022-09-21T20:03:55.013Z,1018.391
2022-09-21T20:08:57.705Z,1018.415
2022-09-21T20:14:00.351Z,1018.433
2022-09-21T20:19:02.984Z,1018.408
2022-09-21T20:24:05.826Z,1018.429
2022-09-21T20:29:08.793Z,1018.461
2022-09-21T20:34:10.931Z,1018.426
2022-09-21T20:39:13.358Z,1018.399
2022-09-21T20:44:16.046Z,1018.425
2022-09-21T20:49:18.649Z,1018.427
2022-09-21T20:59:23.933Z,1018.375
2022-09-21T21:09:30.599Z,1018.462
2022-09-21T21:14:33.254Z,1018.444
2022-09-21T21:19:35.863Z,1018.468
2022-09-21T21:24:38.524Z,1018.455
2022-09-21T21:29:41.047Z,1018.527
2022-09-21T21:34:43.685Z,1018.565
2022-09-21T21:39:46.553Z,1018.536
2022-09-21T21:49:51.753Z,1018.453
2022-09-21T22:00:00.153Z,1018.445
2022-09-21T22:05:02.616Z,1018.414
2022-09-21T22:10:05.507Z,1018.34
2022-09-21T22:15:08.249Z,1018.312
2022-09-21T22:20:11.065Z,1018.266
2022-09-21T22:25:13.622Z,1018.364
2022-09-21T22:30:16.330Z,1018.281
2022-09-21T22:35:19.142Z,1018.334
2022-09-21T22:40:21.782Z,1018.348
2022-09-21T22:45:24.286Z,1018.302
2022-09-21T22:50:26.982Z,1018.372
2022-09-21T22:55:29.616Z,1018.398
2022-09-21T23:00:32.318Z,1018.474
2022-09-21T23:05:34.817Z,1018.418
2022-09-21T23:10:37.417Z,1018.435
2022-09-21T23:15:39.891Z,1018.426
2022-09-21T23:20:42.612Z,1018.43
2022-09-21T23:30:47.701Z,1018.295
2022-09-21T23:35:50.399Z,1018.367
2022-09-21T23:40:53.154Z,1018.384
2022-09-21T23:45:55.794Z,1018.38
2022-09-21T23:50:58.626Z,1018.405
2022-09-21T23:56:01.323Z,1018.329
